ADDS METAR Data INFO
IDs: Format: Raw Decoded Include TAF

Data at: 0048 UTC 22 Oct 2017

KHAO 212353Z AUTO 00000KT 10SM CLR 14/11 A3022 RMK AO2 SLP234 T01390106 10239 20139 55000
KHAO 212253Z AUTO 00000KT 10SM CLR 16/11 A3021 RMK AO2 SLP230 T01610106
KHAO 212153Z AUTO 19005KT 10SM CLR 23/09 A3021 RMK AO2 SLP228 T02280089
KHAO 212053Z AUTO 18006KT 10SM CLR 23/09 A3022 RMK AO2 SLP231 T02330089 56008
KHAO 211953Z AUTO VRB06KT 10SM CLR 24/09 A3022 RMK AO2 SLP233 T02390094
KHAO 211853Z AUTO 22005KT 10SM CLR 23/09 A3022 RMK AO2 SLP233 T02280094
KHAO 211753Z AUTO 25005KT 10SM CLR 22/11 A3024 RMK AO2 SLP239 T02220106 10228 20072 58007
KHAO 211653Z AUTO 24006KT 10SM CLR 22/11 A3025 RMK AO2 SLP244 T02170106
KHAO 211553Z AUTO VRB05KT 10SM CLR 21/12 A3026 RMK AO2 SLP246 T02110122
KHAO 211453Z AUTO VRB04KT 10SM CLR 19/12 A3026 RMK AO2 SLP247 T01940122 51008
KHAO 211353Z AUTO 10004KT 8SM CLR 15/13 A3026 RMK AO2 SLP247 T01500128
KHAO 211253Z AUTO 00000KT 3SM BR CLR 11/10 A3025 RMK AO2 SLP246 T01060100
KHAO 211214Z AUTO 00000KT 6SM BR CLR 08/08 A3024 RMK AO2 T00780078
KHAO 211205Z AUTO 00000KT 2SM BR CLR 08/07 A3023 RMK AO2 T00780072
KHAO 211153Z AUTO 00000KT 1 1/4SM BR CLR 07/07 A3023 RMK AO2 SLP240 T00720072 10106 20072 53009
KHAO 211141Z AUTO 00000KT 1 1/4SM BR CLR 08/08 A3023 RMK AO2 VIS 1/2V3 T00780078
KHAO 211123Z AUTO 00000KT 2 1/2SM BR CLR 08/07 A3023 RMK AO2 T00780072
KHAO 211053Z AUTO 00000KT 7SM CLR 08/08 A3023 RMK AO2 SLP237 T00830083
KHAO 211017Z AUTO 00000KT 3SM BR CLR 09/09 A3022 RMK AO2 T00890089
KHAO 210953Z AUTO 00000KT 2 1/2SM BR CLR 08/08 A3021 RMK AO2 SLP228 T00830083
KHAO 210949Z AUTO 00000KT 3SM BR CLR 08/08 A3021 RMK AO2
KHAO 210934Z AUTO 00000KT 2 1/2SM BR CLR 08/08 A3021 RMK AO2 T00830083
KHAO 210853Z AUTO 00000KT 5SM BR CLR 09/09 A3020 RMK AO2 SLP225 T00890089 55001
KHAO 210841Z AUTO 00000KT 3SM BR CLR 08/08 A3020 RMK AO2 T00830083
KHAO 210833Z AUTO 00000KT 2 1/2SM BR CLR 09/09 A3020 RMK AO2 T00890089
KHAO 210753Z AUTO 07003KT 5SM BR CLR 09/09 A3019 RMK AO2 SLP222 T00940094
KHAO 210736Z AUTO 00000KT 6SM BR CLR 09/08 A3019 RMK AO2 T00940083
KHAO 210726Z AUTO 00000KT 2SM BR CLR 08/08 A3019 RMK AO2 VIS 1/2V5 T00830078
KHAO 210715Z AUTO 00000KT 3SM BR CLR 09/09 A3019 RMK AO2 T00940094
KHAO 210704Z AUTO 00000KT 1 1/2SM BR CLR 09/09 A3019 RMK AO2 T00940089
KHAO 210653Z AUTO 00000KT 5SM BR CLR 09/08 A3019 RMK AO2 SLP223 T00890083
KHAO 210553Z AUTO 10004KT 6SM BR CLR 09/08 A3020 RMK AO2 SLP226 T00890083 10139 20083 57002
KHAO 210453Z AUTO 00000KT 3SM BR CLR 09/08 A3021 RMK AO2 SLP228 T00890083 402500050
KHAO 210353Z AUTO 00000KT 7SM CLR 09/09 A3020 RMK AO2 SLP228 T00940089
KHAO 210253Z AUTO 00000KT 10SM CLR 10/10 A3021 RMK AO2 SLP229 T01000100 53003
KHAO 210153Z AUTO 00000KT 10SM CLR 11/09 A3020 RMK AO2 SLP228 T01060094
KHAO 210053Z AUTO 00000KT 10SM CLR 12/11 A3020 RMK AO2 SLP229 T01170111
KHAO 202353Z AUTO 00000KT 10SM CLR 13/11 A3020 RMK AO2 SLP228 T01330111 10250 20133 55001
KHAO 202253Z AUTO 00000KT 10SM CLR 19/12 A3019 RMK AO2 SLP224 T01890122
KHAO 202153Z AUTO VRB03KT 10SM CLR 24/12 A3019 RMK AO2 SLP223 T02390122
KHAO 202053Z AUTO VRB04KT 10SM CLR 24/12 A3020 RMK AO2 SLP226 T02440122 56017
KHAO 201953Z AUTO VRB05KT 10SM CLR 24/12 A3022 RMK AO2 SLP230 T02440122
KHAO 201853Z AUTO 12003KT 10SM CLR 24/12 A3023 RMK AO2 SLP236 T02390117
KHAO 201753Z AUTO VRB03KT 10SM CLR 24/13 A3025 RMK AO2 SLP244 T02440133 10244 20056 58025
KHAO 201653Z AUTO 00000KT 10SM CLR 23/13 A3029 RMK AO2 SLP255 T02280128
KHAO 201553Z AUTO 10003KT 10SM CLR 20/13 A3031 RMK AO2 SLP265 T02000128
KHAO 201453Z AUTO 00000KT 9SM CLR 17/13 A3033 RMK AO2 SLP270 T01670133 52004
KHAO 201353Z AUTO 00000KT 7SM CLR 12/12 A3033 RMK AO2 SLP271 T01220117
KHAO 201316Z AUTO 00000KT 3SM BR CLR 10/10 A3033 RMK AO2 T01000100
KHAO 201310Z AUTO 00000KT 1 3/4SM BR CLR 09/09 A3032 RMK AO2 T00940094
KHAO 201253Z AUTO 00000KT 1/2SM FG CLR 08/08 A3032 RMK AO2 SLP268 T00780078
KHAO 201250Z AUTO 00000KT 3/4SM BR CLR 07/07 A3032 RMK AO2